sensor_id;sensor_type;location;lat;lon;timestamp;temperature;humidity
58413;DHT22;44209;52.952;6.790;2024-03-23T00:53:27;6.70;99.90
58413;DHT22;44209;52.952;6.790;2024-03-23T00:55:52;6.70;99.90
58413;DHT22;44209;52.952;6.790;2024-03-23T00:58:18;6.70;99.90
58413;DHT22;44209;52.952;6.790;2024-03-23T01:00:44;6.70;99.90
58413;DHT22;44209;52.952;6.790;2024-03-23T01:03:09;6.60;99.90
58413;DHT22;44209;52.952;6.790;2024-03-23T01:05:35;6.60;99.90
58413;DHT22;44209;52.952;6.790;2024-03-23T01:08:01;6.60;99.90
58413;DHT22;44209;52.952;6.790;2024-03-23T01:10:27;6.60;99.90
58413;DHT22;44209;52.952;6.790;2024-03-23T01:12:53;6.60;99.90
58413;DHT22;44209;52.952;6.790;2024-03-23T01:15:19;6.60;99.90
58413;DHT22;44209;52.952;6.790;2024-03-23T01:17:44;6.50;99.90
58413;DHT22;44209;52.952;6.790;2024-03-23T01:20:10;6.50;99.90
58413;DHT22;44209;52.952;6.790;2024-03-23T01:22:36;6.50;99.90
58413;DHT22;44209;52.952;6.790;2024-03-23T01:25:02;6.40;99.90
58413;DHT22;44209;52.952;6.790;2024-03-23T01:27:27;6.40;99.90
58413;DHT22;44209;52.952;6.790;2024-03-23T01:29:53;6.40;99.90
58413;DHT22;44209;52.952;6.790;2024-03-23T01:32:20;6.30;99.90
58413;DHT22;44209;52.952;6.790;2024-03-23T01:34:45;6.30;99.90
58413;DHT22;44209;52.952;6.790;2024-03-23T01:37:11;6.30;99.90
58413;DHT22;44209;52.952;6.790;2024-03-23T01:39:37;6.30;99.90
58413;DHT22;44209;52.952;6.790;2024-03-23T01:42:03;6.20;99.90
58413;DHT22;44209;52.952;6.790;2024-03-23T01:44:29;6.10;99.90
58413;DHT22;44209;52.952;6.790;2024-03-23T01:46:54;6.10;99.90
58413;DHT22;44209;52.952;6.790;2024-03-23T01:49:20;6.10;99.90
58413;DHT22;44209;52.952;6.790;2024-03-23T01:51:46;6.00;99.90
58413;DHT22;44209;52.952;6.790;2024-03-23T01:54:12;6.00;99.90
58413;DHT22;44209;52.952;6.790;2024-03-23T01:56:38;6.00;99.90
58413;DHT22;44209;52.952;6.790;2024-03-23T01:59:07;6.00;99.90
58413;DHT22;44209;52.952;6.790;2024-03-23T02:01:34;6.00;99.90
58413;DHT22;44209;52.952;6.790;2024-03-23T02:04:01;5.90;99.90
58413;DHT22;44209;52.952;6.790;2024-03-23T02:06:27;5.90;99.90
58413;DHT22;44209;52.952;6.790;2024-03-23T02:08:54;5.80;99.90
58413;DHT22;44209;52.952;6.790;2024-03-23T02:11:20;5.80;99.90
58413;DHT22;44209;52.952;6.790;2024-03-23T02:13:46;5.70;99.90
58413;DHT22;44209;52.952;6.790;2024-03-23T02:16:12;5.70;99.90
58413;DHT22;44209;52.952;6.790;2024-03-23T02:18:39;5.70;99.90
58413;DHT22;44209;52.952;6.790;2024-03-23T02:21:04;5.60;99.90
58413;DHT22;44209;52.952;6.790;2024-03-23T02:23:30;5.60;99.90
58413;DHT22;44209;52.952;6.790;2024-03-23T02:25:56;5.50;99.90
58413;DHT22;44209;52.952;6.790;2024-03-23T02:28:22;5.50;99.90
58413;DHT22;44209;52.952;6.790;2024-03-23T02:30:51;5.50;99.90
58413;DHT22;44209;52.952;6.790;2024-03-23T02:33:17;5.50;99.90
58413;DHT22;44209;52.952;6.790;2024-03-23T02:35:47;5.50;99.90
58413;DHT22;44209;52.952;6.790;2024-03-23T02:38:12;5.40;99.90
58413;DHT22;44209;52.952;6.790;2024-03-23T02:40:38;5.40;99.90
58413;DHT22;44209;52.952;6.790;2024-03-23T02:43:04;5.30;99.90
58413;DHT22;44209;52.952;6.790;2024-03-23T02:45:30;5.30;99.90
58413;DHT22;44209;52.952;6.790;2024-03-23T02:47:56;5.30;99.90
58413;DHT22;44209;52.952;6.790;2024-03-23T02:50:23;5.20;99.90
58413;DHT22;44209;52.952;6.790;2024-03-23T02:52:48;5.20;99.90
58413;DHT22;44209;52.952;6.790;2024-03-23T02:55:14;5.10;99.90
58413;DHT22;44209;52.952;6.790;2024-03-23T02:57:41;5.10;99.90
58413;DHT22;44209;52.952;6.790;2024-03-23T03:00:08;5.10;99.90
58413;DHT22;44209;52.952;6.790;2024-03-23T03:02:35;5.10;99.90
58413;DHT22;44209;52.952;6.790;2024-03-23T03:05:01;5.10;99.90
58413;DHT22;44209;52.952;6.790;2024-03-23T03:07:27;5.00;99.90
58413;DHT22;44209;52.952;6.790;2024-03-23T03:09:53;5.00;99.90
58413;DHT22;44209;52.952;6.790;2024-03-23T03:12:18;5.00;99.90
58413;DHT22;44209;52.952;6.790;2024-03-23T03:14:44;4.90;99.90
58413;DHT22;44209;52.952;6.790;2024-03-23T03:17:10;4.90;99.90
58413;DHT22;44209;52.952;6.790;2024-03-23T03:19:35;4.90;99.90
58413;DHT22;44209;52.952;6.790;2024-03-23T03:22:01;4.90;99.90
58413;DHT22;44209;52.952;6.790;2024-03-23T03:24:27;4.90;99.90
58413;DHT22;44209;52.952;6.790;2024-03-23T03:26:52;4.80;99.90
58413;DHT22;44209;52.952;6.790;2024-03-23T03:29:18;4.80;99.90
58413;DHT22;44209;52.952;6.790;2024-03-23T03:31:44;4.80;99.90
58413;DHT22;44209;52.952;6.790;2024-03-23T03:34:10;4.80;99.90
58413;DHT22;44209;52.952;6.790;2024-03-23T03:36:36;4.80;99.90
58413;DHT22;44209;52.952;6.790;2024-03-23T03:39:01;4.80;99.90
58413;DHT22;44209;52.952;6.790;2024-03-23T03:41:31;4.80;99.90
58413;DHT22;44209;52.952;6.790;2024-03-23T03:43:57;4.70;99.90
58413;DHT22;44209;52.952;6.790;2024-03-23T03:46:27;4.70;99.90
58413;DHT22;44209;52.952;6.790;2024-03-23T03:48:54;4.70;99.90
58413;DHT22;44209;52.952;6.790;2024-03-23T03:51:20;4.70;99.90
58413;DHT22;44209;52.952;6.790;2024-03-23T03:53:46;4.70;99.90
58413;DHT22;44209;52.952;6.790;2024-03-23T03:56:12;4.70;99.90
58413;DHT22;44209;52.952;6.790;2024-03-23T03:58:38;4.60;99.90
58413;DHT22;44209;52.952;6.790;2024-03-23T04:01:03;4.60;99.90
58413;DHT22;44209;52.952;6.790;2024-03-23T04:03:29;4.60;99.90
58413;DHT22;44209;52.952;6.790;2024-03-23T04:05:55;4.60;99.90
58413;DHT22;44209;52.952;6.790;2024-03-23T04:08:21;4.60;99.90
58413;DHT22;44209;52.952;6.790;2024-03-23T04:10:47;4.50;99.90
58413;DHT22;44209;52.952;6.790;2024-03-23T04:13:13;4.60;99.90
58413;DHT22;44209;52.952;6.790;2024-03-23T04:15:39;4.60;99.90
58413;DHT22;44209;52.952;6.790;2024-03-23T04:18:05;4.50;99.90
58413;DHT22;44209;52.952;6.790;2024-03-23T04:20:31;4.50;99.90
58413;DHT22;44209;52.952;6.790;2024-03-23T04:23:00;4.50;99.90
58413;DHT22;44209;52.952;6.790;2024-03-23T04:25:26;4.50;99.90
58413;DHT22;44209;52.952;6.790;2024-03-23T04:27:52;4.50;99.90
58413;DHT22;44209;52.952;6.790;2024-03-23T04:30:18;4.40;99.90
58413;DHT22;44209;52.952;6.790;2024-03-23T04:32:45;4.40;99.90
58413;DHT22;44209;52.952;6.790;2024-03-23T04:35:10;4.40;99.90
58413;DHT22;44209;52.952;6.790;2024-03-23T04:37:37;4.40;99.90
58413;DHT22;44209;52.952;6.790;2024-03-23T04:40:04;4.40;99.90
58413;DHT22;44209;52.952;6.790;2024-03-23T04:42:30;4.40;99.90
58413;DHT22;44209;52.952;6.790;2024-03-23T04:44:56;4.40;99.90
58413;DHT22;44209;52.952;6.790;2024-03-23T04:47:22;4.40;99.90
58413;DHT22;44209;52.952;6.790;2024-03-23T04:49:48;4.30;99.90
58413;DHT22;44209;52.952;6.790;2024-03-23T04:52:15;4.30;99.90
58413;DHT22;44209;52.952;6.790;2024-03-23T04:54:41;4.30;99.90
58413;DHT22;44209;52.952;6.790;2024-03-23T04:57:07;4.30;99.90
58413;DHT22;44209;52.952;6.790;2024-03-23T04:59:32;4.30;99.90
58413;DHT22;44209;52.952;6.790;2024-03-23T05:01:59;4.30;99.90
58413;DHT22;44209;52.952;6.790;2024-03-23T05:04:25;4.30;99.90
58413;DHT22;44209;52.952;6.790;2024-03-23T05:06:51;4.30;99.90
58413;DHT22;44209;52.952;6.790;2024-03-23T05:09:17;4.30;99.90
58413;DHT22;44209;52.952;6.790;2024-03-23T05:11:42;4.30;99.90
58413;DHT22;44209;52.952;6.790;2024-03-23T05:14:08;4.30;99.90
58413;DHT22;44209;52.952;6.790;2024-03-23T05:16:34;4.40;99.90
58413;DHT22;44209;52.952;6.790;2024-03-23T05:19:00;4.40;99.90
58413;DHT22;44209;52.952;6.790;2024-03-23T05:21:26;4.40;99.90
58413;DHT22;44209;52.952;6.790;2024-03-23T05:23:54;4.40;99.90
58413;DHT22;44209;52.952;6.790;2024-03-23T05:26:21;4.40;99.90
58413;DHT22;44209;52.952;6.790;2024-03-23T05:28:47;4.40;99.90
58413;DHT22;44209;52.952;6.790;2024-03-23T05:31:12;4.40;99.90
58413;DHT22;44209;52.952;6.790;2024-03-23T05:33:47;4.40;99.90
58413;DHT22;44209;52.952;6.790;2024-03-23T05:36:13;4.40;99.90
58413;DHT22;44209;52.952;6.790;2024-03-23T05:38:39;4.40;99.90
58413;DHT22;44209;52.952;6.790;2024-03-23T05:41:05;4.40;99.90
58413;DHT22;44209;52.952;6.790;2024-03-23T05:43:31;4.40;99.90
58413;DHT22;44209;52.952;6.790;2024-03-23T05:45:57;4.40;99.90
58413;DHT22;44209;52.952;6.790;2024-03-23T05:48:24;4.40;99.90
58413;DHT22;44209;52.952;6.790;2024-03-23T05:50:50;4.40;99.90
58413;DHT22;44209;52.952;6.790;2024-03-23T05:53:16;4.40;99.90
58413;DHT22;44209;52.952;6.790;2024-03-23T05:55:42;4.50;99.90
58413;DHT22;44209;52.952;6.790;2024-03-23T05:58:08;4.50;99.90
58413;DHT22;44209;52.952;6.790;2024-03-23T06:00:34;4.50;99.90
58413;DHT22;44209;52.952;6.790;2024-03-23T06:03:00;4.50;99.90
58413;DHT22;44209;52.952;6.790;2024-03-23T06:05:26;4.50;99.90
58413;DHT22;44209;52.952;6.790;2024-03-23T06:07:53;4.50;99.90
58413;DHT22;44209;52.952;6.790;2024-03-23T06:10:19;4.50;99.90
58413;DHT22;44209;52.952;6.790;2024-03-23T06:12:48;4.60;99.90
58413;DHT22;44209;52.952;6.790;2024-03-23T06:15:14;4.70;99.90
58413;DHT22;44209;52.952;6.790;2024-03-23T06:17:40;4.70;99.90
58413;DHT22;44209;52.952;6.790;2024-03-23T06:20:06;4.80;99.90
58413;DHT22;44209;52.952;6.790;2024-03-23T06:22:32;4.90;99.90
58413;DHT22;44209;52.952;6.790;2024-03-23T06:24:59;5.00;99.90
58413;DHT22;44209;52.952;6.790;2024-03-23T06:27:25;5.10;99.90
58413;DHT22;44209;52.952;6.790;2024-03-23T06:29:51;5.20;99.90
58413;DHT22;44209;52.952;6.790;2024-03-23T06:32:17;5.40;99.90
58413;DHT22;44209;52.952;6.790;2024-03-23T06:34:44;5.50;99.90
58413;DHT22;44209;52.952;6.790;2024-03-23T06:37:11;5.60;99.90
58413;DHT22;44209;52.952;6.790;2024-03-23T06:39:37;5.50;99.90
58413;DHT22;44209;52.952;6.790;2024-03-23T06:42:03;5.50;99.90
58413;DHT22;44209;52.952;6.790;2024-03-23T06:44:29;5.50;99.90
58413;DHT22;44209;52.952;6.790;2024-03-23T06:46:56;5.50;99.90
58413;DHT22;44209;52.952;6.790;2024-03-23T06:49:22;5.50;99.90
58413;DHT22;44209;52.952;6.790;2024-03-23T06:51:48;5.40;99.90
58413;DHT22;44209;52.952;6.790;2024-03-23T06:54:14;5.40;99.90
58413;DHT22;44209;52.952;6.790;2024-03-23T06:56:40;5.40;99.90
58413;DHT22;44209;52.952;6.790;2024-03-23T06:59:06;5.40;99.90
58413;DHT22;44209;52.952;6.790;2024-03-23T07:01:32;5.40;99.90
58413;DHT22;44209;52.952;6.790;2024-03-23T07:03:58;5.40;99.90
58413;DHT22;44209;52.952;6.790;2024-03-23T07:06:23;5.40;99.90
58413;DHT22;44209;52.952;6.790;2024-03-23T07:08:49;5.50;99.90
58413;DHT22;44209;52.952;6.790;2024-03-23T07:11:19;5.50;99.90
58413;DHT22;44209;52.952;6.790;2024-03-23T07:13:45;5.50;99.90
58413;DHT22;44209;52.952;6.790;2024-03-23T07:16:12;5.50;99.90
58413;DHT22;44209;52.952;6.790;2024-03-23T07:18:38;5.60;99.90
58413;DHT22;44209;52.952;6.790;2024-03-23T07:21:05;5.60;99.90
58413;DHT22;44209;52.952;6.790;2024-03-23T07:23:32;5.60;99.90
58413;DHT22;44209;52.952;6.790;2024-03-23T07:26:02;5.60;99.90
58413;DHT22;44209;52.952;6.790;2024-03-23T07:28:28;5.60;99.90
58413;DHT22;44209;52.952;6.790;2024-03-23T07:31:15;5.70;99.90
58413;DHT22;44209;52.952;6.790;2024-03-23T07:33:43;5.80;99.90
58413;DHT22;44209;52.952;6.790;2024-03-23T07:36:09;5.80;99.90
58413;DHT22;44209;52.952;6.790;2024-03-23T07:38:35;5.90;99.90
58413;DHT22;44209;52.952;6.790;2024-03-23T07:41:09;6.00;99.90
58413;DHT22;44209;52.952;6.790;2024-03-23T07:43:35;6.10;99.90
58413;DHT22;44209;52.952;6.790;2024-03-23T07:46:02;6.30;99.90
58413;DHT22;44209;52.952;6.790;2024-03-23T07:48:29;6.40;99.90
58413;DHT22;44209;52.952;6.790;2024-03-23T07:51:07;6.60;99.90
58413;DHT22;44209;52.952;6.790;2024-03-23T07:53:34;6.80;99.90
58413;DHT22;44209;52.952;6.790;2024-03-23T07:56:02;6.80;99.90
58413;DHT22;44209;52.952;6.790;2024-03-23T07:58:28;6.80;99.90
58413;DHT22;44209;52.952;6.790;2024-03-23T08:01:07;6.80;99.90
58413;DHT22;44209;52.952;6.790;2024-03-23T08:03:40;6.70;99.90
58413;DHT22;44209;52.952;6.790;2024-03-23T08:06:13;6.60;99.90
58413;DHT22;44209;52.952;6.790;2024-03-23T08:08:40;6.60;99.90
58413;DHT22;44209;52.952;6.790;2024-03-23T08:11:05;6.70;99.90
58413;DHT22;44209;52.952;6.790;2024-03-23T08:13:32;6.70;99.90
58413;DHT22;44209;52.952;6.790;2024-03-23T08:16:02;6.70;99.90
58413;DHT22;44209;52.952;6.790;2024-03-23T08:18:29;6.80;99.90
58413;DHT22;44209;52.952;6.790;2024-03-23T08:21:02;6.80;99.90
58413;DHT22;44209;52.952;6.790;2024-03-23T08:23:29;6.90;99.90
58413;DHT22;44209;52.952;6.790;2024-03-23T08:25:58;6.90;99.90
58413;DHT22;44209;52.952;6.790;2024-03-23T08:28:25;6.80;99.90
58413;DHT22;44209;52.952;6.790;2024-03-23T08:30:51;6.70;99.90
58413;DHT22;44209;52.952;6.790;2024-03-23T08:33:17;6.60;99.90
58413;DHT22;44209;52.952;6.790;2024-03-23T08:35:43;6.50;99.90
58413;DHT22;44209;52.952;6.790;2024-03-23T08:38:17;6.50;99.90
58413;DHT22;44209;52.952;6.790;2024-03-23T08:40:43;6.50;99.90
58413;DHT22;44209;52.952;6.790;2024-03-23T08:43:09;6.40;99.90
58413;DHT22;44209;52.952;6.790;2024-03-23T08:45:34;6.30;99.90
58413;DHT22;44209;52.952;6.790;2024-03-23T08:48:00;6.30;99.90
58413;DHT22;44209;52.952;6.790;2024-03-23T08:50:26;6.30;99.90
58413;DHT22;44209;52.952;6.790;2024-03-23T08:52:51;6.20;99.90
58413;DHT22;44209;52.952;6.790;2024-03-23T08:55:17;6.20;99.90
58413;DHT22;44209;52.952;6.790;2024-03-23T08:57:43;6.30;99.90
58413;DHT22;44209;52.952;6.790;2024-03-23T09:00:09;6.40;99.90
58413;DHT22;44209;52.952;6.790;2024-03-23T09:02:37;6.50;99.90
58413;DHT22;44209;52.952;6.790;2024-03-23T09:05:02;6.50;99.90
58413;DHT22;44209;52.952;6.790;2024-03-23T09:07:31;6.50;99.90
58413;DHT22;44209;52.952;6.790;2024-03-23T09:09:56;6.60;99.90
58413;DHT22;44209;52.952;6.790;2024-03-23T09:12:22;6.80;99.90
58413;DHT22;44209;52.952;6.790;2024-03-23T09:14:49;7.10;99.90
58413;DHT22;44209;52.952;6.790;2024-03-23T09:17:15;7.30;99.90
58413;DHT22;44209;52.952;6.790;2024-03-23T09:19:41;7.60;99.90
58413;DHT22;44209;52.952;6.790;2024-03-23T09:22:06;7.80;99.90
58413;DHT22;44209;52.952;6.790;2024-03-23T09:24:32;8.00;99.90
58413;DHT22;44209;52.952;6.790;2024-03-23T09:26:58;8.10;99.90
58413;DHT22;44209;52.952;6.790;2024-03-23T09:29:24;8.30;99.90
58413;DHT22;44209;52.952;6.790;2024-03-23T09:31:49;8.50;99.90
58413;DHT22;44209;52.952;6.790;2024-03-23T09:34:15;8.30;99.90
58413;DHT22;44209;52.952;6.790;2024-03-23T09:36:41;8.20;99.90
58413;DHT22;44209;52.952;6.790;2024-03-23T09:39:07;8.00;99.90
58413;DHT22;44209;52.952;6.790;2024-03-23T09:41:35;7.80;99.90
58413;DHT22;44209;52.952;6.790;2024-03-23T09:44:01;7.70;99.90
58413;DHT22;44209;52.952;6.790;2024-03-23T09:46:27;7.50;99.90
58413;DHT22;44209;52.952;6.790;2024-03-23T09:48:55;7.40;99.90
58413;DHT22;44209;52.952;6.790;2024-03-23T09:51:22;7.50;99.90
58413;DHT22;44209;52.952;6.790;2024-03-23T09:53:50;7.80;99.90
58413;DHT22;44209;52.952;6.790;2024-03-23T09:56:17;8.10;99.90
58413;DHT22;44209;52.952;6.790;2024-03-23T09:58:43;8.30;99.90
58413;DHT22;44209;52.952;6.790;2024-03-23T10:01:09;8.60;99.90
58413;DHT22;44209;52.952;6.790;2024-03-23T10:03:43;8.80;99.90
58413;DHT22;44209;52.952;6.790;2024-03-23T10:06:09;9.00;99.90
58413;DHT22;44209;52.952;6.790;2024-03-23T10:08:34;9.10;99.90
58413;DHT22;44209;52.952;6.790;2024-03-23T10:11:13;9.00;99.90
58413;DHT22;44209;52.952;6.790;2024-03-23T10:13:42;8.80;99.90
58413;DHT22;44209;52.952;6.790;2024-03-23T10:16:08;8.60;99.90
58413;DHT22;44209;52.952;6.790;2024-03-23T10:18:41;8.40;99.90
58413;DHT22;44209;52.952;6.790;2024-03-23T10:21:07;8.30;99.90
58413;DHT22;44209;52.952;6.790;2024-03-23T10:23:41;8.10;99.90
58413;DHT22;44209;52.952;6.790;2024-03-23T10:26:21;8.00;99.90
58413;DHT22;44209;52.952;6.790;2024-03-23T10:28:57;7.90;99.90
58413;DHT22;44209;52.952;6.790;2024-03-23T10:31:26;7.80;99.90
58413;DHT22;44209;52.952;6.790;2024-03-23T10:33:52;7.80;99.90
58413;DHT22;44209;52.952;6.790;2024-03-23T10:36:20;7.80;99.90
58413;DHT22;44209;52.952;6.790;2024-03-23T10:38:46;7.70;99.90
58413;DHT22;44209;52.952;6.790;2024-03-23T10:41:13;7.70;99.90
58413;DHT22;44209;52.952;6.790;2024-03-23T10:43:39;7.80;99.90
58413;DHT22;44209;52.952;6.790;2024-03-23T10:46:05;7.80;99.90
58413;DHT22;44209;52.952;6.790;2024-03-23T10:48:34;7.80;99.90
58413;DHT22;44209;52.952;6.790;2024-03-23T10:51:00;8.00;99.90
58413;DHT22;44209;52.952;6.790;2024-03-23T10:53:27;8.30;99.90
58413;DHT22;44209;52.952;6.790;2024-03-23T10:55:55;8.40;99.90
58413;DHT22;44209;52.952;6.790;2024-03-23T10:58:25;8.70;99.90
58413;DHT22;44209;52.952;6.790;2024-03-23T11:00:53;8.80;99.90
58413;DHT22;44209;52.952;6.790;2024-03-23T11:03:36;8.80;99.90
58413;DHT22;44209;52.952;6.790;2024-03-23T11:06:03;8.90;99.90
58413;DHT22;44209;52.952;6.790;2024-03-23T11:08:39;8.80;99.90
58413;DHT22;44209;52.952;6.790;2024-03-23T11:11:21;8.70;99.90
58413;DHT22;44209;52.952;6.790;2024-03-23T11:13:51;8.40;99.90
58413;DHT22;44209;52.952;6.790;2024-03-23T11:16:21;7.90;99.90
58413;DHT22;44209;52.952;6.790;2024-03-23T11:18:47;7.50;99.90
58413;DHT22;44209;52.952;6.790;2024-03-23T11:24:16;7.20;99.90
58413;DHT22;44209;52.952;6.790;2024-03-23T11:26:42;7.10;99.90
58413;DHT22;44209;52.952;6.790;2024-03-23T11:29:12;7.20;99.90
58413;DHT22;44209;52.952;6.790;2024-03-23T11:31:38;7.40;99.90
58413;DHT22;44209;52.952;6.790;2024-03-23T11:34:05;7.50;99.90
58413;DHT22;44209;52.952;6.790;2024-03-23T11:36:31;7.70;99.90
58413;DHT22;44209;52.952;6.790;2024-03-23T11:38:56;8.00;99.90
58413;DHT22;44209;52.952;6.790;2024-03-23T11:41:22;8.10;99.90
58413;DHT22;44209;52.952;6.790;2024-03-23T11:43:48;8.40;99.90
58413;DHT22;44209;52.952;6.790;2024-03-23T11:46:22;8.40;99.90
58413;DHT22;44209;52.952;6.790;2024-03-23T11:48:51;8.50;99.90
58413;DHT22;44209;52.952;6.790;2024-03-23T11:51:17;8.80;99.90
58413;DHT22;44209;52.952;6.790;2024-03-23T11:53:43;9.10;99.90
58413;DHT22;44209;52.952;6.790;2024-03-23T11:56:09;9.30;99.90
58413;DHT22;44209;52.952;6.790;2024-03-23T11:58:35;9.50;99.90
58413;DHT22;44209;52.952;6.790;2024-03-23T12:01:02;9.60;99.90
58413;DHT22;44209;52.952;6.790;2024-03-23T12:03:29;9.80;99.90
58413;DHT22;44209;52.952;6.790;2024-03-23T12:06:00;9.70;99.90
58413;DHT22;44209;52.952;6.790;2024-03-23T12:08:31;9.40;99.90
58413;DHT22;44209;52.952;6.790;2024-03-23T12:11:08;9.30;99.90
58413;DHT22;44209;52.952;6.790;2024-03-23T12:13:35;9.40;99.90
58413;DHT22;44209;52.952;6.790;2024-03-23T12:16:20;9.50;99.90
58413;DHT22;44209;52.952;6.790;2024-03-23T12:18:48;9.60;99.90
58413;DHT22;44209;52.952;6.790;2024-03-23T12:21:17;9.20;99.90
58413;DHT22;44209;52.952;6.790;2024-03-23T12:23:43;8.60;99.90
58413;DHT22;44209;52.952;6.790;2024-03-23T12:26:11;8.10;99.90
58413;DHT22;44209;52.952;6.790;2024-03-23T12:28:37;8.00;99.90
58413;DHT22;44209;52.952;6.790;2024-03-23T12:31:04;7.90;99.90
58413;DHT22;44209;52.952;6.790;2024-03-23T12:33:29;8.00;99.90
58413;DHT22;44209;52.952;6.790;2024-03-23T12:35:55;8.20;99.90
58413;DHT22;44209;52.952;6.790;2024-03-23T12:38:21;8.40;99.90
58413;DHT22;44209;52.952;6.790;2024-03-23T12:40:47;8.60;99.90
58413;DHT22;44209;52.952;6.790;2024-03-23T12:43:14;8.80;99.90
58413;DHT22;44209;52.952;6.790;2024-03-23T12:45:40;9.00;99.90
58413;DHT22;44209;52.952;6.790;2024-03-23T12:48:06;9.20;99.90
58413;DHT22;44209;52.952;6.790;2024-03-23T12:50:32;9.30;99.90
58413;DHT22;44209;52.952;6.790;2024-03-23T12:52:58;9.40;99.90
58413;DHT22;44209;52.952;6.790;2024-03-23T12:55:23;9.50;99.90
58413;DHT22;44209;52.952;6.790;2024-03-23T12:57:49;9.60;99.90
58413;DHT22;44209;52.952;6.790;2024-03-23T13:00:15;9.80;99.90
58413;DHT22;44209;52.952;6.790;2024-03-23T13:02:44;10.00;99.90
58413;DHT22;44209;52.952;6.790;2024-03-23T13:05:10;10.10;99.90
58413;DHT22;44209;52.952;6.790;2024-03-23T13:07:36;10.30;99.90
58413;DHT22;44209;52.952;6.790;2024-03-23T13:10:03;10.20;99.90
58413;DHT22;44209;52.952;6.790;2024-03-23T13:12:29;10.30;99.90
58413;DHT22;44209;52.952;6.790;2024-03-23T13:14:55;10.20;99.90
58413;DHT22;44209;52.952;6.790;2024-03-23T13:17:20;10.10;99.90
58413;DHT22;44209;52.952;6.790;2024-03-23T13:19:46;9.60;99.90
58413;DHT22;44209;52.952;6.790;2024-03-23T13:22:12;9.20;99.90
58413;DHT22;44209;52.952;6.790;2024-03-23T13:24:38;8.70;99.90
58413;DHT22;44209;52.952;6.790;2024-03-23T13:27:04;8.40;99.90
58413;DHT22;44209;52.952;6.790;2024-03-23T13:29:33;8.10;99.90
58413;DHT22;44209;52.952;6.790;2024-03-23T13:32:00;7.80;99.90
58413;DHT22;44209;52.952;6.790;2024-03-23T13:34:26;7.60;99.90
58413;DHT22;44209;52.952;6.790;2024-03-23T13:36:51;7.40;99.90
58413;DHT22;44209;52.952;6.790;2024-03-23T13:39:17;7.40;99.90
58413;DHT22;44209;52.952;6.790;2024-03-23T13:41:44;7.50;99.90
58413;DHT22;44209;52.952;6.790;2024-03-23T13:44:14;7.50;99.90
58413;DHT22;44209;52.952;6.790;2024-03-23T13:46:40;7.50;99.90
58413;DHT22;44209;52.952;6.790;2024-03-23T13:49:29;7.40;99.90
58413;DHT22;44209;52.952;6.790;2024-03-23T13:51:57;7.40;99.90
58413;DHT22;44209;52.952;6.790;2024-03-23T13:54:28;7.30;99.90
58413;DHT22;44209;52.952;6.790;2024-03-23T13:56:55;7.40;99.90
58413;DHT22;44209;52.952;6.790;2024-03-23T13:59:22;7.50;99.90
58413;DHT22;44209;52.952;6.790;2024-03-23T14:01:51;7.70;99.90
58413;DHT22;44209;52.952;6.790;2024-03-23T14:04:17;7.80;99.90
58413;DHT22;44209;52.952;6.790;2024-03-23T14:06:45;7.80;99.90
58413;DHT22;44209;52.952;6.790;2024-03-23T14:09:12;7.80;99.90
58413;DHT22;44209;52.952;6.790;2024-03-23T14:11:38;7.80;99.90
58413;DHT22;44209;52.952;6.790;2024-03-23T14:14:04;7.70;99.90
58413;DHT22;44209;52.952;6.790;2024-03-23T14:16:31;7.70;99.90
58413;DHT22;44209;52.952;6.790;2024-03-23T14:18:57;7.70;99.90
58413;DHT22;44209;52.952;6.790;2024-03-23T14:21:23;7.60;99.90
58413;DHT22;44209;52.952;6.790;2024-03-23T14:23:49;7.60;99.90
58413;DHT22;44209;52.952;6.790;2024-03-23T14:26:15;7.70;99.90
58413;DHT22;44209;52.952;6.790;2024-03-23T14:28:40;7.70;99.90
58413;DHT22;44209;52.952;6.790;2024-03-23T14:31:06;7.90;99.90
58413;DHT22;44209;52.952;6.790;2024-03-23T14:33:39;8.00;99.90
58413;DHT22;44209;52.952;6.790;2024-03-23T14:36:15;8.10;99.90
58413;DHT22;44209;52.952;6.790;2024-03-23T14:38:42;8.30;99.90
58413;DHT22;44209;52.952;6.790;2024-03-23T14:41:08;8.60;99.90
58413;DHT22;44209;52.952;6.790;2024-03-23T14:43:33;8.80;99.90
58413;DHT22;44209;52.952;6.790;2024-03-23T14:46:12;9.10;99.90
58413;DHT22;44209;52.952;6.790;2024-03-23T14:48:43;9.20;99.90
58413;DHT22;44209;52.952;6.790;2024-03-23T14:51:10;9.30;99.90
58413;DHT22;44209;52.952;6.790;2024-03-23T14:53:38;9.50;99.90
58413;DHT22;44209;52.952;6.790;2024-03-23T14:56:06;9.50;99.90
58413;DHT22;44209;52.952;6.790;2024-03-23T14:58:32;9.50;99.90
58413;DHT22;44209;52.952;6.790;2024-03-23T15:01:07;9.50;99.90
58413;DHT22;44209;52.952;6.790;2024-03-23T15:03:37;9.60;99.90
58413;DHT22;44209;52.952;6.790;2024-03-23T15:06:04;9.50;99.90
58413;DHT22;44209;52.952;6.790;2024-03-23T15:08:30;9.30;99.90
58413;DHT22;44209;52.952;6.790;2024-03-23T15:11:00;8.90;99.90
58413;DHT22;44209;52.952;6.790;2024-03-23T15:13:26;8.50;99.90
58413;DHT22;44209;52.952;6.790;2024-03-23T15:15:52;8.30;99.90
58413;DHT22;44209;52.952;6.790;2024-03-23T15:18:18;8.10;99.90
58413;DHT22;44209;52.952;6.790;2024-03-23T15:21:01;8.20;99.90
58413;DHT22;44209;52.952;6.790;2024-03-23T15:23:37;8.30;99.90
58413;DHT22;44209;52.952;6.790;2024-03-23T15:26:03;8.40;99.90
58413;DHT22;44209;52.952;6.790;2024-03-23T15:28:31;8.60;99.90
58413;DHT22;44209;52.952;6.790;2024-03-23T15:31:12;8.70;99.90
58413;DHT22;44209;52.952;6.790;2024-03-23T15:33:38;8.70;99.90
58413;DHT22;44209;52.952;6.790;2024-03-23T15:36:05;8.70;99.90
58413;DHT22;44209;52.952;6.790;2024-03-23T15:38:32;8.70;99.90
58413;DHT22;44209;52.952;6.790;2024-03-23T15:40:58;8.90;99.90
58413;DHT22;44209;52.952;6.790;2024-03-23T15:43:24;8.90;99.90
58413;DHT22;44209;52.952;6.790;2024-03-23T15:46:00;8.80;99.90
58413;DHT22;44209;52.952;6.790;2024-03-23T15:48:30;8.70;99.90
58413;DHT22;44209;52.952;6.790;2024-03-23T15:51:01;8.50;99.90
58413;DHT22;44209;52.952;6.790;2024-03-23T15:53:30;8.40;99.90
58413;DHT22;44209;52.952;6.790;2024-03-23T15:58:25;8.30;99.90
58413;DHT22;44209;52.952;6.790;2024-03-23T16:00:58;8.30;99.90
58413;DHT22;44209;52.952;6.790;2024-03-23T16:03:24;8.30;99.90
58413;DHT22;44209;52.952;6.790;2024-03-23T16:05:51;8.30;99.90
58413;DHT22;44209;52.952;6.790;2024-03-23T16:08:17;8.20;99.90
58413;DHT22;44209;52.952;6.790;2024-03-23T16:10:43;8.30;99.90
58413;DHT22;44209;52.952;6.790;2024-03-23T16:13:09;8.20;99.90
58413;DHT22;44209;52.952;6.790;2024-03-23T16:15:34;8.20;99.90
58413;DHT22;44209;52.952;6.790;2024-03-23T16:18:00;8.20;99.90
58413;DHT22;44209;52.952;6.790;2024-03-23T16:20:26;8.10;99.90
58413;DHT22;44209;52.952;6.790;2024-03-23T16:22:51;8.10;99.90
58413;DHT22;44209;52.952;6.790;2024-03-23T16:25:17;8.10;99.90
58413;DHT22;44209;52.952;6.790;2024-03-23T16:27:43;8.00;99.90
58413;DHT22;44209;52.952;6.790;2024-03-23T16:30:09;7.90;99.90
58413;DHT22;44209;52.952;6.790;2024-03-23T16:32:35;7.90;99.90
58413;DHT22;44209;52.952;6.790;2024-03-23T16:35:03;7.80;99.90
58413;DHT22;44209;52.952;6.790;2024-03-23T16:37:29;7.70;99.90
58413;DHT22;44209;52.952;6.790;2024-03-23T16:39:55;7.70;99.90
58413;DHT22;44209;52.952;6.790;2024-03-23T16:42:20;7.60;99.90